sensor_id;sensor_type;location;lat;lon;timestamp;P1;durP1;ratioP1;P2;durP2;ratioP2
5393;SDS011;2720;52.396;10.064;2022-08-18T00:00:07;18.07;;;13.67;;
5393;SDS011;2720;52.396;10.064;2022-08-18T00:02:39;22.07;;;13.37;;
5393;SDS011;2720;52.396;10.064;2022-08-18T00:05:07;19.77;;;14.80;;
5393;SDS011;2720;52.396;10.064;2022-08-18T00:07:36;17.40;;;13.77;;
5393;SDS011;2720;52.396;10.064;2022-08-18T00:10:05;15.80;;;12.33;;
5393;SDS011;2720;52.396;10.064;2022-08-18T00:12:34;32.13;;;13.03;;
5393;SDS011;2720;52.396;10.064;2022-08-18T00:15:03;13.60;;;12.20;;
5393;SDS011;2720;52.396;10.064;2022-08-18T00:17:31;16.80;;;13.10;;
5393;SDS011;2720;52.396;10.064;2022-08-18T00:19:59;14.90;;;11.80;;
5393;SDS011;2720;52.396;10.064;2022-08-18T00:22:27;17.50;;;12.77;;
5393;SDS011;2720;52.396;10.064;2022-08-18T00:24:54;13.87;;;12.37;;
5393;SDS011;2720;52.396;10.064;2022-08-18T00:27:23;16.33;;;13.97;;
5393;SDS011;2720;52.396;10.064;2022-08-18T00:29:51;15.33;;;13.87;;
5393;SDS011;2720;52.396;10.064;2022-08-18T00:32:20;21.03;;;14.40;;
5393;SDS011;2720;52.396;10.064;2022-08-18T00:34:49;20.57;;;15.70;;
5393;SDS011;2720;52.396;10.064;2022-08-18T00:37:17;15.30;;;13.43;;
5393;SDS011;2720;52.396;10.064;2022-08-18T00:39:44;16.80;;;13.13;;
5393;SDS011;2720;52.396;10.064;2022-08-18T00:42:13;19.00;;;13.40;;
5393;SDS011;2720;52.396;10.064;2022-08-18T00:44:42;22.23;;;15.17;;
5393;SDS011;2720;52.396;10.064;2022-08-18T00:47:09;19.27;;;13.10;;
5393;SDS011;2720;52.396;10.064;2022-08-18T00:49:37;18.03;;;13.73;;
5393;SDS011;2720;52.396;10.064;2022-08-18T00:52:06;16.27;;;13.00;;
5393;SDS011;2720;52.396;10.064;2022-08-18T00:54:38;19.13;;;13.17;;
5393;SDS011;2720;52.396;10.064;2022-08-18T00:57:08;15.33;;;13.23;;
5393;SDS011;2720;52.396;10.064;2022-08-18T00:59:36;16.83;;;13.53;;
5393;SDS011;2720;52.396;10.064;2022-08-18T01:02:08;17.23;;;13.67;;
5393;SDS011;2720;52.396;10.064;2022-08-18T01:04:38;18.10;;;13.50;;
5393;SDS011;2720;52.396;10.064;2022-08-18T01:07:10;15.40;;;13.57;;
5393;SDS011;2720;52.396;10.064;2022-08-18T01:09:44;17.13;;;13.70;;
5393;SDS011;2720;52.396;10.064;2022-08-18T01:12:11;18.40;;;13.43;;
5393;SDS011;2720;52.396;10.064;2022-08-18T01:14:39;15.10;;;12.43;;
5393;SDS011;2720;52.396;10.064;2022-08-18T01:17:06;18.67;;;14.03;;
5393;SDS011;2720;52.396;10.064;2022-08-18T01:19:50;16.70;;;13.77;;
5393;SDS011;2720;52.396;10.064;2022-08-18T01:22:36;18.23;;;13.67;;
5393;SDS011;2720;52.396;10.064;2022-08-18T01:25:10;18.63;;;14.60;;
5393;SDS011;2720;52.396;10.064;2022-08-18T01:27:54;29.50;;;14.90;;
5393;SDS011;2720;52.396;10.064;2022-08-18T01:30:22;19.40;;;14.50;;
5393;SDS011;2720;52.396;10.064;2022-08-18T01:32:50;18.70;;;15.10;;
5393;SDS011;2720;52.396;10.064;2022-08-18T01:35:18;19.03;;;14.60;;
5393;SDS011;2720;52.396;10.064;2022-08-18T01:37:49;17.77;;;13.13;;
5393;SDS011;2720;52.396;10.064;2022-08-18T01:40:18;15.47;;;13.33;;
5393;SDS011;2720;52.396;10.064;2022-08-18T01:42:47;20.67;;;16.10;;
5393;SDS011;2720;52.396;10.064;2022-08-18T01:45:15;22.33;;;16.30;;
5393;SDS011;2720;52.396;10.064;2022-08-18T01:47:44;19.27;;;14.10;;
5393;SDS011;2720;52.396;10.064;2022-08-18T01:50:11;22.30;;;17.20;;
5393;SDS011;2720;52.396;10.064;2022-08-18T01:52:39;21.50;;;15.33;;
5393;SDS011;2720;52.396;10.064;2022-08-18T01:55:06;24.43;;;16.27;;
5393;SDS011;2720;52.396;10.064;2022-08-18T01:57:37;15.60;;;13.33;;
5393;SDS011;2720;52.396;10.064;2022-08-18T02:00:07;21.23;;;14.67;;
5393;SDS011;2720;52.396;10.064;2022-08-18T02:02:35;19.70;;;14.37;;
5393;SDS011;2720;52.396;10.064;2022-08-18T02:05:04;19.70;;;14.80;;
5393;SDS011;2720;52.396;10.064;2022-08-18T02:07:35;18.00;;;15.23;;
5393;SDS011;2720;52.396;10.064;2022-08-18T02:10:04;22.70;;;16.53;;
5393;SDS011;2720;52.396;10.064;2022-08-18T02:12:32;22.37;;;15.50;;
5393;SDS011;2720;52.396;10.064;2022-08-18T02:15:00;17.93;;;15.20;;
5393;SDS011;2720;52.396;10.064;2022-08-18T02:17:28;22.20;;;14.87;;
5393;SDS011;2720;52.396;10.064;2022-08-18T02:20:01;16.30;;;13.63;;
5393;SDS011;2720;52.396;10.064;2022-08-18T02:22:29;30.63;;;16.97;;
5393;SDS011;2720;52.396;10.064;2022-08-18T02:24:56;26.77;;;16.80;;
5393;SDS011;2720;52.396;10.064;2022-08-18T02:27:25;27.63;;;17.17;;
5393;SDS011;2720;52.396;10.064;2022-08-18T02:29:53;23.70;;;16.70;;
5393;SDS011;2720;52.396;10.064;2022-08-18T02:32:21;22.50;;;18.40;;
5393;SDS011;2720;52.396;10.064;2022-08-18T02:34:48;37.40;;;19.43;;
5393;SDS011;2720;52.396;10.064;2022-08-18T02:37:15;22.80;;;18.40;;
5393;SDS011;2720;52.396;10.064;2022-08-18T02:39:43;26.87;;;20.50;;
5393;SDS011;2720;52.396;10.064;2022-08-18T02:42:10;25.50;;;19.70;;
5393;SDS011;2720;52.396;10.064;2022-08-18T02:44:39;24.53;;;19.13;;
5393;SDS011;2720;52.396;10.064;2022-08-18T02:47:06;24.83;;;18.47;;
5393;SDS011;2720;52.396;10.064;2022-08-18T02:49:34;36.97;;;19.00;;
5393;SDS011;2720;52.396;10.064;2022-08-18T02:52:01;28.33;;;18.60;;
5393;SDS011;2720;52.396;10.064;2022-08-18T02:54:29;29.00;;;19.63;;
5393;SDS011;2720;52.396;10.064;2022-08-18T02:56:56;24.60;;;19.70;;
5393;SDS011;2720;52.396;10.064;2022-08-18T02:59:25;29.83;;;19.90;;
5393;SDS011;2720;52.396;10.064;2022-08-18T03:01:54;26.07;;;19.27;;
5393;SDS011;2720;52.396;10.064;2022-08-18T03:04:22;30.00;;;19.80;;
5393;SDS011;2720;52.396;10.064;2022-08-18T03:06:53;30.33;;;20.73;;
5393;SDS011;2720;52.396;10.064;2022-08-18T03:09:20;26.40;;;19.40;;
5393;SDS011;2720;52.396;10.064;2022-08-18T03:11:47;35.63;;;21.13;;
5393;SDS011;2720;52.396;10.064;2022-08-18T03:14:15;28.00;;;18.60;;
5393;SDS011;2720;52.396;10.064;2022-08-18T03:16:42;23.90;;;18.37;;
5393;SDS011;2720;52.396;10.064;2022-08-18T03:19:11;27.07;;;17.77;;
5393;SDS011;2720;52.396;10.064;2022-08-18T03:21:38;33.20;;;19.13;;
5393;SDS011;2720;52.396;10.064;2022-08-18T03:24:07;24.00;;;17.43;;
5393;SDS011;2720;52.396;10.064;2022-08-18T03:26:34;32.70;;;19.27;;
5393;SDS011;2720;52.396;10.064;2022-08-18T03:29:02;29.03;;;19.53;;
5393;SDS011;2720;52.396;10.064;2022-08-18T03:31:29;21.30;;;18.17;;
5393;SDS011;2720;52.396;10.064;2022-08-18T03:33:57;25.03;;;18.20;;
5393;SDS011;2720;52.396;10.064;2022-08-18T03:36:26;24.67;;;18.90;;
5393;SDS011;2720;52.396;10.064;2022-08-18T03:38:57;29.80;;;18.10;;
5393;SDS011;2720;52.396;10.064;2022-08-18T03:41:28;26.87;;;19.40;;
5393;SDS011;2720;52.396;10.064;2022-08-18T03:43:56;29.63;;;19.67;;
5393;SDS011;2720;52.396;10.064;2022-08-18T03:46:23;36.63;;;25.67;;
5393;SDS011;2720;52.396;10.064;2022-08-18T03:48:50;49.50;;;28.90;;
5393;SDS011;2720;52.396;10.064;2022-08-18T03:51:19;57.00;;;33.30;;
5393;SDS011;2720;52.396;10.064;2022-08-18T03:53:49;53.17;;;33.50;;
5393;SDS011;2720;52.396;10.064;2022-08-18T03:56:17;62.53;;;36.83;;
5393;SDS011;2720;52.396;10.064;2022-08-18T03:58:47;63.60;;;38.37;;
5393;SDS011;2720;52.396;10.064;2022-08-18T04:01:17;71.83;;;40.77;;
5393;SDS011;2720;52.396;10.064;2022-08-18T04:03:46;65.40;;;39.20;;
5393;SDS011;2720;52.396;10.064;2022-08-18T04:06:15;64.73;;;39.20;;
5393;SDS011;2720;52.396;10.064;2022-08-18T04:08:44;58.00;;;35.87;;
5393;SDS011;2720;52.396;10.064;2022-08-18T04:11:11;61.83;;;35.93;;
5393;SDS011;2720;52.396;10.064;2022-08-18T04:13:39;47.70;;;30.80;;
5393;SDS011;2720;52.396;10.064;2022-08-18T04:16:07;50.10;;;31.60;;
5393;SDS011;2720;52.396;10.064;2022-08-18T04:18:34;51.60;;;33.87;;
5393;SDS011;2720;52.396;10.064;2022-08-18T04:21:01;51.50;;;33.57;;
5393;SDS011;2720;52.396;10.064;2022-08-18T04:23:32;51.97;;;33.23;;
5393;SDS011;2720;52.396;10.064;2022-08-18T04:25:59;44.20;;;32.70;;
5393;SDS011;2720;52.396;10.064;2022-08-18T04:28:27;46.77;;;32.10;;
5393;SDS011;2720;52.396;10.064;2022-08-18T04:30:55;44.13;;;30.83;;
5393;SDS011;2720;52.396;10.064;2022-08-18T04:33:25;46.40;;;31.40;;
5393;SDS011;2720;52.396;10.064;2022-08-18T04:35:52;50.47;;;31.30;;
5393;SDS011;2720;52.396;10.064;2022-08-18T04:38:19;54.77;;;31.93;;
5393;SDS011;2720;52.396;10.064;2022-08-18T04:40:48;57.53;;;34.10;;
5393;SDS011;2720;52.396;10.064;2022-08-18T04:43:15;58.63;;;35.03;;
5393;SDS011;2720;52.396;10.064;2022-08-18T04:45:43;57.80;;;36.60;;
5393;SDS011;2720;52.396;10.064;2022-08-18T04:48:11;57.87;;;34.63;;
5393;SDS011;2720;52.396;10.064;2022-08-18T04:50:41;54.67;;;34.50;;
5393;SDS011;2720;52.396;10.064;2022-08-18T04:53:08;62.33;;;33.53;;
5393;SDS011;2720;52.396;10.064;2022-08-18T04:55:49;47.03;;;31.87;;
5393;SDS011;2720;52.396;10.064;2022-08-18T04:58:18;52.37;;;31.23;;
5393;SDS011;2720;52.396;10.064;2022-08-18T05:00:46;50.57;;;34.07;;
5393;SDS011;2720;52.396;10.064;2022-08-18T05:03:21;50.77;;;33.17;;
5393;SDS011;2720;52.396;10.064;2022-08-18T05:05:52;48.23;;;32.63;;
5393;SDS011;2720;52.396;10.064;2022-08-18T05:08:19;47.47;;;32.40;;
5393;SDS011;2720;52.396;10.064;2022-08-18T05:10:47;57.43;;;36.87;;
5393;SDS011;2720;52.396;10.064;2022-08-18T05:13:18;52.00;;;35.50;;
5393;SDS011;2720;52.396;10.064;2022-08-18T05:15:50;56.80;;;35.57;;
5393;SDS011;2720;52.396;10.064;2022-08-18T05:18:21;48.00;;;32.50;;
5393;SDS011;2720;52.396;10.064;2022-08-18T05:20:50;56.23;;;31.90;;
5393;SDS011;2720;52.396;10.064;2022-08-18T05:23:19;48.77;;;28.53;;
5393;SDS011;2720;52.396;10.064;2022-08-18T05:25:46;42.03;;;27.97;;
5393;SDS011;2720;52.396;10.064;2022-08-18T05:28:13;41.63;;;27.33;;
5393;SDS011;2720;52.396;10.064;2022-08-18T05:30:41;46.83;;;28.30;;
5393;SDS011;2720;52.396;10.064;2022-08-18T05:33:08;40.83;;;26.40;;
5393;SDS011;2720;52.396;10.064;2022-08-18T05:35:37;48.87;;;27.67;;
5393;SDS011;2720;52.396;10.064;2022-08-18T05:38:14;34.20;;;23.20;;
5393;SDS011;2720;52.396;10.064;2022-08-18T05:41:06;41.33;;;27.10;;
5393;SDS011;2720;52.396;10.064;2022-08-18T05:43:35;40.00;;;25.63;;
5393;SDS011;2720;52.396;10.064;2022-08-18T05:46:04;59.43;;;26.77;;
5393;SDS011;2720;52.396;10.064;2022-08-18T05:48:33;52.70;;;26.80;;
5393;SDS011;2720;52.396;10.064;2022-08-18T05:51:02;47.17;;;27.67;;
5393;SDS011;2720;52.396;10.064;2022-08-18T05:53:39;49.17;;;26.00;;
5393;SDS011;2720;52.396;10.064;2022-08-18T05:56:25;40.87;;;25.93;;
5393;SDS011;2720;52.396;10.064;2022-08-18T05:59:13;42.63;;;28.40;;
5393;SDS011;2720;52.396;10.064;2022-08-18T06:01:46;43.73;;;27.57;;
5393;SDS011;2720;52.396;10.064;2022-08-18T06:04:18;35.93;;;25.90;;
5393;SDS011;2720;52.396;10.064;2022-08-18T06:06:51;39.40;;;27.10;;
5393;SDS011;2720;52.396;10.064;2022-08-18T06:09:25;33.80;;;23.77;;
5393;SDS011;2720;52.396;10.064;2022-08-18T06:11:54;36.93;;;25.93;;
5393;SDS011;2720;52.396;10.064;2022-08-18T06:14:35;36.60;;;25.97;;
5393;SDS011;2720;52.396;10.064;2022-08-18T06:17:08;39.20;;;25.77;;
5393;SDS011;2720;52.396;10.064;2022-08-18T06:19:50;39.67;;;25.80;;
5393;SDS011;2720;52.396;10.064;2022-08-18T06:22:26;40.30;;;27.40;;
5393;SDS011;2720;52.396;10.064;2022-08-18T06:25:03;39.23;;;26.10;;
5393;SDS011;2720;52.396;10.064;2022-08-18T06:27:42;44.23;;;28.40;;
5393;SDS011;2720;52.396;10.064;2022-08-18T06:30:21;41.43;;;30.27;;
5393;SDS011;2720;52.396;10.064;2022-08-18T06:33:03;47.90;;;28.73;;
5393;SDS011;2720;52.396;10.064;2022-08-18T06:35:39;42.43;;;29.63;;
5393;SDS011;2720;52.396;10.064;2022-08-18T06:38:16;46.13;;;31.23;;
5393;SDS011;2720;52.396;10.064;2022-08-18T06:41:10;38.50;;;28.90;;
5393;SDS011;2720;52.396;10.064;2022-08-18T06:43:42;52.07;;;30.90;;
5393;SDS011;2720;52.396;10.064;2022-08-18T06:46:21;48.60;;;31.77;;
5393;SDS011;2720;52.396;10.064;2022-08-18T06:48:52;60.57;;;36.63;;
5393;SDS011;2720;52.396;10.064;2022-08-18T06:51:22;53.27;;;36.87;;
5393;SDS011;2720;52.396;10.064;2022-08-18T06:53:56;56.40;;;38.17;;
5393;SDS011;2720;52.396;10.064;2022-08-18T06:56:27;61.30;;;38.50;;
5393;SDS011;2720;52.396;10.064;2022-08-18T06:59:13;59.93;;;40.93;;
5393;SDS011;2720;52.396;10.064;2022-08-18T07:01:41;55.70;;;38.50;;
5393;SDS011;2720;52.396;10.064;2022-08-18T07:04:08;60.90;;;37.97;;
5393;SDS011;2720;52.396;10.064;2022-08-18T07:06:35;52.47;;;34.17;;
5393;SDS011;2720;52.396;10.064;2022-08-18T07:09:19;60.73;;;39.73;;
5393;SDS011;2720;52.396;10.064;2022-08-18T07:12:00;61.37;;;39.97;;
5393;SDS011;2720;52.396;10.064;2022-08-18T07:14:30;60.80;;;39.57;;
5393;SDS011;2720;52.396;10.064;2022-08-18T07:17:08;72.60;;;45.67;;
5393;SDS011;2720;52.396;10.064;2022-08-18T07:19:36;73.23;;;42.33;;
5393;SDS011;2720;52.396;10.064;2022-08-18T07:22:05;76.80;;;45.90;;
5393;SDS011;2720;52.396;10.064;2022-08-18T07:24:35;64.07;;;42.60;;
5393;SDS011;2720;52.396;10.064;2022-08-18T07:27:09;63.03;;;39.60;;
5393;SDS011;2720;52.396;10.064;2022-08-18T07:29:39;57.70;;;40.00;;
5393;SDS011;2720;52.396;10.064;2022-08-18T07:32:24;57.60;;;37.37;;
5393;SDS011;2720;52.396;10.064;2022-08-18T07:34:55;54.17;;;35.90;;
5393;SDS011;2720;52.396;10.064;2022-08-18T07:37:25;59.90;;;36.83;;
5393;SDS011;2720;52.396;10.064;2022-08-18T07:39:58;60.80;;;39.60;;
5393;SDS011;2720;52.396;10.064;2022-08-18T07:42:31;61.30;;;39.77;;
5393;SDS011;2720;52.396;10.064;2022-08-18T07:45:05;60.07;;;38.97;;
5393;SDS011;2720;52.396;10.064;2022-08-18T07:47:41;63.27;;;40.57;;
5393;SDS011;2720;52.396;10.064;2022-08-18T07:50:15;56.70;;;37.77;;
5393;SDS011;2720;52.396;10.064;2022-08-18T07:52:43;55.83;;;37.03;;
5393;SDS011;2720;52.396;10.064;2022-08-18T07:55:19;58.47;;;34.90;;
5393;SDS011;2720;52.396;10.064;2022-08-18T07:57:50;59.57;;;36.37;;
5393;SDS011;2720;52.396;10.064;2022-08-18T08:00:24;51.03;;;35.50;;
5393;SDS011;2720;52.396;10.064;2022-08-18T08:02:59;49.10;;;34.17;;
5393;SDS011;2720;52.396;10.064;2022-08-18T08:05:39;47.47;;;30.77;;
5393;SDS011;2720;52.396;10.064;2022-08-18T08:08:16;50.20;;;32.10;;
5393;SDS011;2720;52.396;10.064;2022-08-18T08:10:49;58.40;;;40.00;;
5393;SDS011;2720;52.396;10.064;2022-08-18T08:13:20;62.23;;;40.90;;
5393;SDS011;2720;52.396;10.064;2022-08-18T08:15:53;51.03;;;32.90;;
5393;SDS011;2720;52.396;10.064;2022-08-18T08:18:24;57.90;;;35.37;;
5393;SDS011;2720;52.396;10.064;2022-08-18T08:21:00;69.87;;;42.03;;
5393;SDS011;2720;52.396;10.064;2022-08-18T08:23:32;71.67;;;44.63;;
5393;SDS011;2720;52.396;10.064;2022-08-18T08:29:05;59.77;;;38.37;;
5393;SDS011;2720;52.396;10.064;2022-08-18T08:31:47;55.13;;;34.53;;
5393;SDS011;2720;52.396;10.064;2022-08-18T08:34:19;46.87;;;29.07;;
5393;SDS011;2720;52.396;10.064;2022-08-18T08:36:52;45.53;;;30.77;;
5393;SDS011;2720;52.396;10.064;2022-08-18T08:39:30;48.90;;;31.60;;
5393;SDS011;2720;52.396;10.064;2022-08-18T08:42:05;40.10;;;29.70;;
5393;SDS011;2720;52.396;10.064;2022-08-18T08:44:39;43.37;;;28.23;;
5393;SDS011;2720;52.396;10.064;2022-08-18T08:47:09;46.93;;;29.33;;
5393;SDS011;2720;52.396;10.064;2022-08-18T08:49:38;44.73;;;26.63;;
5393;SDS011;2720;52.396;10.064;2022-08-18T08:52:10;52.37;;;28.93;;
5393;SDS011;2720;52.396;10.064;2022-08-18T08:54:44;43.13;;;27.10;;
5393;SDS011;2720;52.396;10.064;2022-08-18T08:57:12;41.00;;;26.93;;
5393;SDS011;2720;52.396;10.064;2022-08-18T08:59:41;35.97;;;25.43;;
5393;SDS011;2720;52.396;10.064;2022-08-18T09:02:27;41.33;;;25.80;;
5393;SDS011;2720;52.396;10.064;2022-08-18T09:04:56;38.57;;;25.10;;
5393;SDS011;2720;52.396;10.064;2022-08-18T09:07:35;36.27;;;25.13;;
5393;SDS011;2720;52.396;10.064;2022-08-18T09:10:28;35.90;;;23.63;;
5393;SDS011;2720;52.396;10.064;2022-08-18T09:13:02;40.27;;;25.27;;
5393;SDS011;2720;52.396;10.064;2022-08-18T09:15:41;38.37;;;27.33;;
5393;SDS011;2720;52.396;10.064;2022-08-18T09:18:14;46.23;;;27.40;;
5393;SDS011;2720;52.396;10.064;2022-08-18T09:20:57;40.83;;;27.27;;
5393;SDS011;2720;52.396;10.064;2022-08-18T09:23:31;41.77;;;28.00;;
5393;SDS011;2720;52.396;10.064;2022-08-18T09:26:20;44.33;;;27.87;;
5393;SDS011;2720;52.396;10.064;2022-08-18T09:28:52;44.90;;;27.53;;
5393;SDS011;2720;52.396;10.064;2022-08-18T09:31:24;42.53;;;28.23;;
5393;SDS011;2720;52.396;10.064;2022-08-18T09:33:59;39.50;;;26.60;;
5393;SDS011;2720;52.396;10.064;2022-08-18T09:36:55;42.93;;;27.20;;
5393;SDS011;2720;52.396;10.064;2022-08-18T09:39:30;36.80;;;27.40;;
5393;SDS011;2720;52.396;10.064;2022-08-18T09:42:25;38.20;;;24.20;;
5393;SDS011;2720;52.396;10.064;2022-08-18T09:44:57;44.80;;;25.93;;
5393;SDS011;2720;52.396;10.064;2022-08-18T09:53:32;37.00;;;24.13;;
5393;SDS011;2720;52.396;10.064;2022-08-18T09:56:02;44.63;;;28.23;;
5393;SDS011;2720;52.396;10.064;2022-08-18T09:58:46;35.77;;;25.70;;
5393;SDS011;2720;52.396;10.064;2022-08-18T10:01:19;39.13;;;26.73;;
5393;SDS011;2720;52.396;10.064;2022-08-18T10:04:18;30.90;;;23.23;;
5393;SDS011;2720;52.396;10.064;2022-08-18T10:09:45;39.47;;;24.70;;
5393;SDS011;2720;52.396;10.064;2022-08-18T10:12:27;32.07;;;22.47;;
5393;SDS011;2720;52.396;10.064;2022-08-18T10:15:17;31.43;;;22.13;;
5393;SDS011;2720;52.396;10.064;2022-08-18T10:17:59;48.07;;;22.70;;
5393;SDS011;2720;52.396;10.064;2022-08-18T10:20:59;38.60;;;23.33;;
5393;SDS011;2720;52.396;10.064;2022-08-18T10:29:43;32.73;;;22.47;;
5393;SDS011;2720;52.396;10.064;2022-08-18T10:32:17;29.20;;;21.67;;
5393;SDS011;2720;52.396;10.064;2022-08-18T10:38:21;27.17;;;19.90;;
5393;SDS011;2720;52.396;10.064;2022-08-18T10:40:52;25.20;;;18.40;;
5393;SDS011;2720;52.396;10.064;2022-08-18T10:43:25;26.40;;;19.63;;
5393;SDS011;2720;52.396;10.064;2022-08-18T10:45:56;30.57;;;20.07;;
5393;SDS011;2720;52.396;10.064;2022-08-18T10:48:25;25.07;;;17.87;;
5393;SDS011;2720;52.396;10.064;2022-08-18T10:50:55;19.90;;;15.10;;
5393;SDS011;2720;52.396;10.064;2022-08-18T10:53:30;21.93;;;16.73;;
5393;SDS011;2720;52.396;10.064;2022-08-18T10:56:00;23.77;;;17.00;;
5393;SDS011;2720;52.396;10.064;2022-08-18T10:58:43;24.03;;;16.97;;
5393;SDS011;2720;52.396;10.064;2022-08-18T11:01:28;24.00;;;16.00;;
5393;SDS011;2720;52.396;10.064;2022-08-18T11:04:21;20.67;;;15.80;;
5393;SDS011;2720;52.396;10.064;2022-08-18T11:07:01;20.53;;;17.27;;
5393;SDS011;2720;52.396;10.064;2022-08-18T11:09:35;22.50;;;16.70;;
5393;SDS011;2720;52.396;10.064;2022-08-18T11:12:04;21.90;;;15.03;;
5393;SDS011;2720;52.396;10.064;2022-08-18T11:17:46;16.17;;;13.57;;
5393;SDS011;2720;52.396;10.064;2022-08-18T11:20:22;20.20;;;16.00;;
5393;SDS011;2720;52.396;10.064;2022-08-18T11:22:55;17.17;;;14.53;;
5393;SDS011;2720;52.396;10.064;2022-08-18T11:25:25;18.33;;;13.57;;
5393;SDS011;2720;52.396;10.064;2022-08-18T11:27:55;21.73;;;16.10;;
5393;SDS011;2720;52.396;10.064;2022-08-18T11:30:24;21.48;;;15.40;;
5393;SDS011;2720;52.396;10.064;2022-08-18T11:32:56;23.27;;;14.65;;
5393;SDS011;2720;52.396;10.064;2022-08-18T11:35:26;19.67;;;16.23;;
5393;SDS011;2720;52.396;10.064;2022-08-18T11:37:57;16.88;;;13.50;;
5393;SDS011;2720;52.396;10.064;2022-08-18T11:40:36;18.77;;;15.77;;
5393;SDS011;2720;52.396;10.064;2022-08-18T11:43:05;14.90;;;12.60;;
5393;SDS011;2720;52.396;10.064;2022-08-18T11:45:50;29.37;;;15.20;;
5393;SDS011;2720;52.396;10.064;2022-08-18T11:48:22;17.90;;;12.10;;
5393;SDS011;2720;52.396;10.064;2022-08-18T11:51:00;14.70;;;12.70;;
5393;SDS011;2720;52.396;10.064;2022-08-18T11:53:36;16.47;;;14.30;;
5393;SDS011;2720;52.396;10.064;2022-08-18T11:56:15;14.80;;;11.63;;
5393;SDS011;2720;52.396;10.064;2022-08-18T11:58:49;19.87;;;17.03;;
5393;SDS011;2720;52.396;10.064;2022-08-18T12:01:32;16.70;;;14.80;;
5393;SDS011;2720;52.396;10.064;2022-08-18T12:04:14;15.17;;;13.43;;
5393;SDS011;2720;52.396;10.064;2022-08-18T12:06:57;15.07;;;10.70;;
5393;SDS011;2720;52.396;10.064;2022-08-18T12:09:28;14.30;;;10.83;;
5393;SDS011;2720;52.396;10.064;2022-08-18T12:12:03;12.17;;;10.77;;
5393;SDS011;2720;52.396;10.064;2022-08-18T12:14:50;14.20;;;12.13;;
5393;SDS011;2720;52.396;10.064;2022-08-18T12:17:20;14.60;;;10.77;;
5393;SDS011;2720;52.396;10.064;2022-08-18T12:19:48;17.97;;;9.60;;
5393;SDS011;2720;52.396;10.064;2022-08-18T12:22:18;15.80;;;12.33;;
5393;SDS011;2720;52.396;10.064;2022-08-18T12:24:46;11.73;;;9.55;;
5393;SDS011;2720;52.396;10.064;2022-08-18T12:27:15;10.77;;;9.70;;
5393;SDS011;2720;52.396;10.064;2022-08-18T12:29:43;9.68;;;8.60;;
5393;SDS011;2720;52.396;10.064;2022-08-18T12:32:10;11.00;;;9.53;;
5393;SDS011;2720;52.396;10.064;2022-08-18T12:34:38;12.30;;;9.47;;
5393;SDS011;2720;52.396;10.064;2022-08-18T12:37:08;11.00;;;8.50;;
5393;SDS011;2720;52.396;10.064;2022-08-18T12:39:35;9.47;;;7.23;;
5393;SDS011;2720;52.396;10.064;2022-08-18T12:42:02;8.27;;;6.97;;
5393;SDS011;2720;52.396;10.064;2022-08-18T12:44:30;8.40;;;7.60;;
5393;SDS011;2720;52.396;10.064;2022-08-18T12:46:58;8.70;;;7.90;;
5393;SDS011;2720;52.396;10.064;2022-08-18T12:49:27;9.70;;;7.57;;
5393;SDS011;2720;52.396;10.064;2022-08-18T12:51:55;6.53;;;5.93;;
5393;SDS011;2720;52.396;10.064;2022-08-18T12:54:23;7.80;;;7.10;;
5393;SDS011;2720;52.396;10.064;2022-08-18T12:56:51;9.40;;;6.83;;
5393;SDS011;2720;52.396;10.064;2022-08-18T12:59:20;10.50;;;7.47;;
5393;SDS011;2720;52.396;10.064;2022-08-18T13:01:47;8.30;;;6.80;;
5393;SDS011;2720;52.396;10.064;2022-08-18T13:04:14;11.00;;;7.20;;
5393;SDS011;2720;52.396;10.064;2022-08-18T13:06:43;10.50;;;6.40;;
5393;SDS011;2720;52.396;10.064;2022-08-18T13:09:12;7.70;;;6.90;;
5393;SDS011;2720;52.396;10.064;2022-08-18T13:11:40;11.20;;;7.30;;
5393;SDS011;2720;52.396;10.064;2022-08-18T13:14:07;10.80;;;8.67;;
5393;SDS011;2720;52.396;10.064;2022-08-18T13:16:35;7.83;;;7.03;;
5393;SDS011;2720;52.396;10.064;2022-08-18T13:19:05;10.10;;;7.50;;
5393;SDS011;2720;52.396;10.064;2022-08-18T13:21:32;9.00;;;7.40;;
5393;SDS011;2720;52.396;10.064;2022-08-18T13:24:00;8.07;;;7.27;;
5393;SDS011;2720;52.396;10.064;2022-08-18T13:26:29;7.57;;;6.43;;
5393;SDS011;2720;52.396;10.064;2022-08-18T13:28:58;8.40;;;7.50;;
5393;SDS011;2720;52.396;10.064;2022-08-18T13:31:25;9.97;;;7.43;;
5393;SDS011;2720;52.396;10.064;2022-08-18T13:33:56;10.43;;;7.87;;
5393;SDS011;2720;52.396;10.064;2022-08-18T13:36:24;8.40;;;7.00;;
5393;SDS011;2720;52.396;10.064;2022-08-18T13:39:08;8.00;;;6.90;;
5393;SDS011;2720;52.396;10.064;2022-08-18T13:41:35;7.43;;;6.67;;
5393;SDS011;2720;52.396;10.064;2022-08-18T13:44:04;10.80;;;5.97;;
5393;SDS011;2720;52.396;10.064;2022-08-18T13:46:31;11.53;;;7.70;;
5393;SDS011;2720;52.396;10.064;2022-08-18T13:48:58;7.80;;;6.77;;
5393;SDS011;2720;52.396;10.064;2022-08-18T13:51:26;8.37;;;6.77;;
5393;SDS011;2720;52.396;10.064;2022-08-18T13:53:53;8.33;;;6.60;;
5393;SDS011;2720;52.396;10.064;2022-08-18T13:56:20;8.43;;;7.73;;
5393;SDS011;2720;52.396;10.064;2022-08-18T13:58:47;10.87;;;7.43;;
5393;SDS011;2720;52.396;10.064;2022-08-18T14:01:15;7.43;;;6.20;;
5393;SDS011;2720;52.396;10.064;2022-08-18T14:03:43;9.57;;;7.20;;
5393;SDS011;2720;52.396;10.064;2022-08-18T14:06:11;9.00;;;6.03;;
5393;SDS011;2720;52.396;10.064;2022-08-18T14:08:38;14.60;;;7.23;;
5393;SDS011;2720;52.396;10.064;2022-08-18T14:11:06;9.20;;;7.10;;
5393;SDS011;2720;52.396;10.064;2022-08-18T14:13:33;11.43;;;6.80;;
5393;SDS011;2720;52.396;10.064;2022-08-18T14:16:02;8.87;;;6.50;;
5393;SDS011;2720;52.396;10.064;2022-08-18T14:18:31;9.63;;;6.80;;
5393;SDS011;2720;52.396;10.064;2022-08-18T14:20:58;11.37;;;7.57;;
5393;SDS011;2720;52.396;10.064;2022-08-18T14:23:42;7.70;;;6.87;;
5393;SDS011;2720;52.396;10.064;2022-08-18T14:26:26;8.60;;;7.20;;
5393;SDS011;2720;52.396;10.064;2022-08-18T14:29:11;15.57;;;7.17;;
5393;SDS011;2720;52.396;10.064;2022-08-18T14:31:38;11.23;;;7.37;;
5393;SDS011;2720;52.396;10.064;2022-08-18T14:34:06;15.07;;;8.13;;
5393;SDS011;2720;52.396;10.064;2022-08-18T14:36:34;8.53;;;7.30;;
5393;SDS011;2720;52.396;10.064;2022-08-18T14:39:01;13.03;;;7.40;;
5393;SDS011;2720;52.396;10.064;2022-08-18T14:41:29;9.33;;;7.17;;
5393;SDS011;2720;52.396;10.064;2022-08-18T14:43:57;10.00;;;7.60;;
5393;SDS011;2720;52.396;10.064;2022-08-18T14:46:25;12.27;;;8.52;;
5393;SDS011;2720;52.396;10.064;2022-08-18T14:48:52;12.82;;;7.85;;
5393;SDS011;2720;52.396;10.064;2022-08-18T14:51:20;14.03;;;8.33;;
5393;SDS011;2720;52.396;10.064;2022-08-18T14:53:48;11.07;;;9.32;;
5393;SDS011;2720;52.396;10.064;2022-08-18T14:56:15;12.50;;;9.27;;
5393;SDS011;2720;52.396;10.064;2022-08-18T14:58:42;12.77;;;9.27;;
5393;SDS011;2720;52.396;10.064;2022-08-18T15:01:09;15.90;;;9.10;;
5393;SDS011;2720;52.396;10.064;2022-08-18T15:03:37;11.43;;;9.40;;
5393;SDS011;2720;52.396;10.064;2022-08-18T15:06:06;15.30;;;9.60;;
5393;SDS011;2720;52.396;10.064;2022-08-18T15:08:36;14.70;;;10.00;;
5393;SDS011;2720;52.396;10.064;2022-08-18T15:11:04;23.70;;;9.17;;
5393;SDS011;2720;52.396;10.064;2022-08-18T15:13:32;13.17;;;9.20;;
5393;SDS011;2720;52.396;10.064;2022-08-18T15:16:00;11.17;;;8.90;;
5393;SDS011;2720;52.396;10.064;2022-08-18T15:18:28;16.33;;;9.10;;
5393;SDS011;2720;52.396;10.064;2022-08-18T15:20:55;9.90;;;8.90;;
5393;SDS011;2720;52.396;10.064;2022-08-18T15:23:41;10.83;;;9.30;;
5393;SDS011;2720;52.396;10.064;2022-08-18T15:26:25;10.23;;;8.63;;
5393;SDS011;2720;52.396;10.064;2022-08-18T15:28:52;9.63;;;8.70;;